sensor_id;sensor_type;location;lat;lon;timestamp;pressure;altitude;pressure_sealevel;temperature;humidity
61757;BME280;57225;61.460;24.060;2023-08-31T00:01:08;99023.81;;;16.43;100.00
61757;BME280;57225;61.460;24.060;2023-08-31T00:03:53;99024.59;;;16.44;100.00
61757;BME280;57225;61.460;24.060;2023-08-31T00:06:38;99023.81;;;16.43;100.00
61757;BME280;57225;61.460;24.060;2023-08-31T00:09:26;99021.31;;;16.45;100.00
61757;BME280;57225;61.460;24.060;2023-08-31T00:12:10;99031.16;;;16.50;100.00
61757;BME280;57225;61.460;24.060;2023-08-31T00:14:55;99019.91;;;16.50;100.00
61757;BME280;57225;61.460;24.060;2023-08-31T00:17:39;99019.13;;;16.49;100.00
61757;BME280;57225;61.460;24.060;2023-08-31T00:20:24;99013.50;;;16.49;100.00
61757;BME280;57225;61.460;24.060;2023-08-31T00:23:09;98999.44;;;16.49;100.00
61757;BME280;57225;61.460;24.060;2023-08-31T00:25:53;99000.97;;;16.50;100.00
61757;BME280;57225;61.460;24.060;2023-08-31T00:28:38;98996.00;;;16.55;100.00
61757;BME280;57225;61.460;24.060;2023-08-31T00:31:22;98980.03;;;16.52;100.00
61757;BME280;57225;61.460;24.060;2023-08-31T00:34:07;98978.81;;;16.53;100.00
61757;BME280;57225;61.460;24.060;2023-08-31T00:36:51;98981.16;;;16.54;100.00
61757;BME280;57225;61.460;24.060;2023-08-31T00:39:36;98963.81;;;16.56;100.00
61757;BME280;57225;61.460;24.060;2023-08-31T00:42:21;98965.84;;;16.55;100.00
61757;BME280;57225;61.460;24.060;2023-08-31T00:45:06;98929.78;;;16.35;100.00
61757;BME280;57225;61.460;24.060;2023-08-31T00:47:51;98958.19;;;16.56;100.00
61757;BME280;57225;61.460;24.060;2023-08-31T00:50:35;98942.22;;;16.53;100.00
61757;BME280;57225;61.460;24.060;2023-08-31T00:53:21;98943.34;;;16.55;100.00
61757;BME280;57225;61.460;24.060;2023-08-31T00:56:08;98948.16;;;16.64;100.00
61757;BME280;57225;61.460;24.060;2023-08-31T00:58:52;98941.75;;;16.63;100.00
61757;BME280;57225;61.460;24.060;2023-08-31T01:02:04;98939.25;;;16.65;100.00
61757;BME280;57225;61.460;24.060;2023-08-31T01:05:13;98941.28;;;16.65;100.00
61757;BME280;57225;61.460;24.060;2023-08-31T01:08:40;98947.22;;;16.67;100.00
61757;BME280;57225;61.460;24.060;2023-08-31T01:11:48;98932.38;;;16.57;100.00
61757;BME280;57225;61.460;24.060;2023-08-31T01:14:43;98944.09;;;16.65;100.00
61757;BME280;57225;61.460;24.060;2023-08-31T01:17:30;98931.13;;;16.58;100.00
61757;BME280;57225;61.460;24.060;2023-08-31T01:20:19;98933.50;;;16.60;100.00
61757;BME280;57225;61.460;24.060;2023-08-31T01:23:16;98941.13;;;16.59;100.00
61757;BME280;57225;61.460;24.060;2023-08-31T01:26:02;98933.81;;;16.62;100.00
61757;BME280;57225;61.460;24.060;2023-08-31T01:28:48;98941.94;;;16.69;100.00
61757;BME280;57225;61.460;24.060;2023-08-31T01:31:32;98952.88;;;16.67;100.00
61757;BME280;57225;61.460;24.060;2023-08-31T01:34:16;98945.34;;;16.64;100.00
61757;BME280;57225;61.460;24.060;2023-08-31T01:37:07;98956.59;;;16.64;100.00
61757;BME280;57225;61.460;24.060;2023-08-31T01:39:56;98947.09;;;16.61;100.00
61757;BME280;57225;61.460;24.060;2023-08-31T01:42:44;98945.97;;;16.59;100.00
61757;BME280;57225;61.460;24.060;2023-08-31T01:45:30;98941.94;;;16.60;100.00
61757;BME280;57225;61.460;24.060;2023-08-31T01:48:15;98932.88;;;16.46;100.00
61757;BME280;57225;61.460;24.060;2023-08-31T01:51:00;98933.16;;;16.58;100.00
61757;BME280;57225;61.460;24.060;2023-08-31T01:53:45;98940.03;;;16.66;100.00
61757;BME280;57225;61.460;24.060;2023-08-31T01:56:30;98935.66;;;16.65;100.00
61757;BME280;57225;61.460;24.060;2023-08-31T01:59:14;98931.75;;;16.71;100.00
61757;BME280;57225;61.460;24.060;2023-08-31T02:01:59;98917.06;;;16.67;100.00
61757;BME280;57225;61.460;24.060;2023-08-31T02:04:43;98915.16;;;16.73;100.00
61757;BME280;57225;61.460;24.060;2023-08-31T02:07:27;98911.44;;;16.67;100.00
61757;BME280;57225;61.460;24.060;2023-08-31T02:10:12;98911.91;;;16.66;100.00
61757;BME280;57225;61.460;24.060;2023-08-31T02:12:57;98896.00;;;16.63;100.00
61757;BME280;57225;61.460;24.060;2023-08-31T02:15:42;98887.84;;;16.65;100.00
61757;BME280;57225;61.460;24.060;2023-08-31T02:18:26;98877.56;;;16.62;100.00
61757;BME280;57225;61.460;24.060;2023-08-31T02:21:11;98876.44;;;16.59;100.00
61757;BME280;57225;61.460;24.060;2023-08-31T02:23:55;98872.72;;;16.62;100.00
61757;BME280;57225;61.460;24.060;2023-08-31T02:26:39;98865.50;;;16.61;100.00
61757;BME280;57225;61.460;24.060;2023-08-31T02:29:24;98864.56;;;16.64;100.00
61757;BME280;57225;61.460;24.060;2023-08-31T02:32:09;98866.59;;;16.64;100.00
61757;BME280;57225;61.460;24.060;2023-08-31T02:34:53;98864.09;;;16.66;100.00
61757;BME280;57225;61.460;24.060;2023-08-31T02:37:37;98859.72;;;16.65;100.00
61757;BME280;57225;61.460;24.060;2023-08-31T02:40:22;98860.34;;;16.69;100.00
61757;BME280;57225;61.460;24.060;2023-08-31T02:43:06;98856.25;;;16.70;100.00
61757;BME280;57225;61.460;24.060;2023-08-31T02:45:59;98839.06;;;16.68;100.00
61757;BME280;57225;61.460;24.060;2023-08-31T02:48:45;98840.00;;;16.65;100.00
61757;BME280;57225;61.460;24.060;2023-08-31T02:51:30;98834.84;;;16.63;100.00
61757;BME280;57225;61.460;24.060;2023-08-31T02:54:15;98835.34;;;16.62;100.00
61757;BME280;57225;61.460;24.060;2023-08-31T02:56:59;98825.34;;;16.61;100.00
61757;BME280;57225;61.460;24.060;2023-08-31T02:59:44;98817.81;;;16.58;100.00
61757;BME280;57225;61.460;24.060;2023-08-31T03:02:31;98819.72;;;16.61;100.00
61757;BME280;57225;61.460;24.060;2023-08-31T03:05:15;98821.88;;;16.66;100.00
61757;BME280;57225;61.460;24.060;2023-08-31T03:08:00;98818.47;;;16.62;100.00
61757;BME280;57225;61.460;24.060;2023-08-31T03:10:45;98827.03;;;16.67;100.00
61757;BME280;57225;61.460;24.060;2023-08-31T03:13:29;98834.38;;;16.65;100.00
61757;BME280;57225;61.460;24.060;2023-08-31T03:16:14;98823.75;;;16.69;100.00
61757;BME280;57225;61.460;24.060;2023-08-31T03:18:59;98818.59;;;16.58;100.00
61757;BME280;57225;61.460;24.060;2023-08-31T03:21:43;98818.94;;;16.60;100.00
61757;BME280;57225;61.460;24.060;2023-08-31T03:24:28;98808.78;;;16.63;100.00
61757;BME280;57225;61.460;24.060;2023-08-31T03:27:12;98798.13;;;16.58;100.00
61757;BME280;57225;61.460;24.060;2023-08-31T03:29:57;98798.78;;;16.62;100.00
61757;BME280;57225;61.460;24.060;2023-08-31T03:32:41;98787.66;;;16.58;100.00
61757;BME280;57225;61.460;24.060;2023-08-31T03:35:26;98794.72;;;16.63;100.00
61757;BME280;57225;61.460;24.060;2023-08-31T03:38:11;98795.47;;;16.63;100.00
61757;BME280;57225;61.460;24.060;2023-08-31T03:40:55;98790.28;;;16.71;100.00
61757;BME280;57225;61.460;24.060;2023-08-31T03:43:40;98790.00;;;16.69;100.00
61757;BME280;57225;61.460;24.060;2023-08-31T03:46:24;98782.50;;;16.66;100.00
61757;BME280;57225;61.460;24.060;2023-08-31T03:49:10;98792.31;;;16.70;100.00
61757;BME280;57225;61.460;24.060;2023-08-31T03:51:54;98794.06;;;16.68;100.00
61757;BME280;57225;61.460;24.060;2023-08-31T03:54:39;98788.56;;;16.73;100.00
61757;BME280;57225;61.460;24.060;2023-08-31T03:57:23;98784.66;;;16.71;100.00
61757;BME280;57225;61.460;24.060;2023-08-31T04:00:08;98778.75;;;16.69;100.00
61757;BME280;57225;61.460;24.060;2023-08-31T04:03:00;98763.28;;;16.64;100.00
61757;BME280;57225;61.460;24.060;2023-08-31T04:05:44;98758.44;;;16.65;100.00
61757;BME280;57225;61.460;24.060;2023-08-31T04:08:28;98782.63;;;16.71;100.00
61757;BME280;57225;61.460;24.060;2023-08-31T04:11:13;98772.97;;;16.63;100.00
61757;BME280;57225;61.460;24.060;2023-08-31T04:13:57;98767.19;;;16.67;100.00
61757;BME280;57225;61.460;24.060;2023-08-31T04:16:42;98772.47;;;16.74;100.00
61757;BME280;57225;61.460;24.060;2023-08-31T04:19:27;98779.03;;;16.71;100.00
61757;BME280;57225;61.460;24.060;2023-08-31T04:22:12;98770.59;;;16.71;100.00
61757;BME280;57225;61.460;24.060;2023-08-31T04:24:56;98782.16;;;16.73;100.00
61757;BME280;57225;61.460;24.060;2023-08-31T04:27:40;98771.25;;;16.66;100.00
61757;BME280;57225;61.460;24.060;2023-08-31T04:30:25;98783.88;;;16.70;100.00
61757;BME280;57225;61.460;24.060;2023-08-31T04:33:10;98793.72;;;16.75;100.00
61757;BME280;57225;61.460;24.060;2023-08-31T04:35:54;98786.97;;;16.81;100.00
61757;BME280;57225;61.460;24.060;2023-08-31T04:38:39;98787.72;;;16.82;100.00
61757;BME280;57225;61.460;24.060;2023-08-31T04:41:23;98792.09;;;16.83;100.00
61757;BME280;57225;61.460;24.060;2023-08-31T04:44:32;98796.94;;;16.82;100.00
61757;BME280;57225;61.460;24.060;2023-08-31T04:47:16;98793.66;;;16.84;100.00
61757;BME280;57225;61.460;24.060;2023-08-31T04:50:01;98796.16;;;16.82;100.00
61757;BME280;57225;61.460;24.060;2023-08-31T04:52:45;98789.94;;;16.78;100.00
61757;BME280;57225;61.460;24.060;2023-08-31T04:55:30;98803.97;;;16.87;100.00
61757;BME280;57225;61.460;24.060;2023-08-31T04:58:14;98776.06;;;16.74;100.00
61757;BME280;57225;61.460;24.060;2023-08-31T05:00:58;98793.66;;;16.84;100.00
61757;BME280;57225;61.460;24.060;2023-08-31T05:03:43;98793.47;;;16.87;100.00
61757;BME280;57225;61.460;24.060;2023-08-31T05:06:27;98784.41;;;16.83;100.00
61757;BME280;57225;61.460;24.060;2023-08-31T05:09:12;98786.28;;;16.86;100.00
61757;BME280;57225;61.460;24.060;2023-08-31T05:11:56;98787.06;;;16.87;100.00
61757;BME280;57225;61.460;24.060;2023-08-31T05:14:41;98786.09;;;16.90;100.00
61757;BME280;57225;61.460;24.060;2023-08-31T05:17:26;98790.78;;;16.93;100.00
61757;BME280;57225;61.460;24.060;2023-08-31T05:20:10;98780.19;;;16.88;100.00
61757;BME280;57225;61.460;24.060;2023-08-31T05:22:55;98781.38;;;16.96;100.00
61757;BME280;57225;61.460;24.060;2023-08-31T05:25:43;98771.56;;;16.92;100.00
61757;BME280;57225;61.460;24.060;2023-08-31T05:28:27;98776.22;;;16.95;100.00
61757;BME280;57225;61.460;24.060;2023-08-31T05:31:11;98769.84;;;16.94;100.00
61757;BME280;57225;61.460;24.060;2023-08-31T05:33:56;98757.84;;;16.84;100.00
61757;BME280;57225;61.460;24.060;2023-08-31T05:36:40;98769.84;;;16.94;100.00
61757;BME280;57225;61.460;24.060;2023-08-31T05:39:25;98758.25;;;16.92;100.00
61757;BME280;57225;61.460;24.060;2023-08-31T05:42:10;98762.13;;;16.95;100.00
61757;BME280;57225;61.460;24.060;2023-08-31T05:44:55;98749.41;;;16.84;100.00
61757;BME280;57225;61.460;24.060;2023-08-31T05:47:40;98770.19;;;16.87;100.00
61757;BME280;57225;61.460;24.060;2023-08-31T05:50:26;98766.72;;;16.92;100.00
61757;BME280;57225;61.460;24.060;2023-08-31T05:53:10;98768.38;;;16.99;100.00
61757;BME280;57225;61.460;24.060;2023-08-31T05:55:55;98769.94;;;17.00;100.00
61757;BME280;57225;61.460;24.060;2023-08-31T05:58:47;98773.16;;;17.07;100.00
61757;BME280;57225;61.460;24.060;2023-08-31T06:01:32;98766.16;;;17.03;100.00
61757;BME280;57225;61.460;24.060;2023-08-31T06:04:16;98761.50;;;17.00;100.00
61757;BME280;57225;61.460;24.060;2023-08-31T06:07:01;98772.53;;;17.12;100.00
61757;BME280;57225;61.460;24.060;2023-08-31T06:09:45;98765.78;;;17.10;100.00
61757;BME280;57225;61.460;24.060;2023-08-31T06:12:30;98751.91;;;17.06;100.00
61757;BME280;57225;61.460;24.060;2023-08-31T06:15:14;98768.25;;;17.17;100.00
61757;BME280;57225;61.460;24.060;2023-08-31T06:17:59;98771.84;;;17.17;100.00
61757;BME280;57225;61.460;24.060;2023-08-31T06:20:43;98763.97;;;17.21;100.00
61757;BME280;57225;61.460;24.060;2023-08-31T06:23:28;98755.38;;;17.25;100.00
61757;BME280;57225;61.460;24.060;2023-08-31T06:26:12;98749.91;;;17.21;100.00
61757;BME280;57225;61.460;24.060;2023-08-31T06:28:57;98755.47;;;17.31;100.00
61757;BME280;57225;61.460;24.060;2023-08-31T06:31:41;98756.53;;;17.33;100.00
61757;BME280;57225;61.460;24.060;2023-08-31T06:34:26;98772.28;;;17.40;100.00
61757;BME280;57225;61.460;24.060;2023-08-31T06:37:10;98774.72;;;17.47;100.00
61757;BME280;57225;61.460;24.060;2023-08-31T06:39:54;98760.47;;;17.50;100.00
61757;BME280;57225;61.460;24.060;2023-08-31T06:42:39;98759.00;;;17.55;100.00
61757;BME280;57225;61.460;24.060;2023-08-31T06:45:27;98766.34;;;17.61;100.00
61757;BME280;57225;61.460;24.060;2023-08-31T06:48:11;98762.84;;;17.66;100.00
61757;BME280;57225;61.460;24.060;2023-08-31T06:50:56;98757.09;;;17.61;100.00
61757;BME280;57225;61.460;24.060;2023-08-31T06:53:41;98759.44;;;17.77;100.00
61757;BME280;57225;61.460;24.060;2023-08-31T06:56:26;98751.19;;;17.74;100.00
61757;BME280;57225;61.460;24.060;2023-08-31T06:59:10;98750.81;;;17.81;100.00
61757;BME280;57225;61.460;24.060;2023-08-31T07:01:55;98746.91;;;17.78;100.00
61757;BME280;57225;61.460;24.060;2023-08-31T07:04:39;98745.34;;;17.77;100.00
61757;BME280;57225;61.460;24.060;2023-08-31T07:07:24;98751.38;;;17.85;100.00
61757;BME280;57225;61.460;24.060;2023-08-31T07:10:08;98751.78;;;17.92;100.00
61757;BME280;57225;61.460;24.060;2023-08-31T07:12:53;98748.38;;;17.88;100.00
61757;BME280;57225;61.460;24.060;2023-08-31T07:15:37;98754.09;;;17.94;100.00
61757;BME280;57225;61.460;24.060;2023-08-31T07:18:22;98752.34;;;17.96;100.00
61757;BME280;57225;61.460;24.060;2023-08-31T07:21:06;98729.44;;;17.89;100.00
61757;BME280;57225;61.460;24.060;2023-08-31T07:23:53;98746.63;;;18.05;100.00
61757;BME280;57225;61.460;24.060;2023-08-31T07:26:38;98736.28;;;18.02;100.00
61757;BME280;57225;61.460;24.060;2023-08-31T07:29:23;98742.81;;;18.08;100.00
61757;BME280;57225;61.460;24.060;2023-08-31T07:32:08;98747.31;;;18.00;100.00
61757;BME280;57225;61.460;24.060;2023-08-31T07:34:52;98740.75;;;18.09;100.00
61757;BME280;57225;61.460;24.060;2023-08-31T07:37:37;98732.13;;;18.13;100.00
61757;BME280;57225;61.460;24.060;2023-08-31T07:40:21;98739.97;;;18.23;100.00
61757;BME280;57225;61.460;24.060;2023-08-31T07:43:06;98719.38;;;18.17;100.00
61757;BME280;57225;61.460;24.060;2023-08-31T07:45:50;98738.78;;;18.30;100.00
61757;BME280;57225;61.460;24.060;2023-08-31T07:48:34;98721.81;;;18.09;100.00
61757;BME280;57225;61.460;24.060;2023-08-31T07:51:19;98722.94;;;18.32;100.00
61757;BME280;57225;61.460;24.060;2023-08-31T07:54:07;98738.78;;;18.30;100.00
61757;BME280;57225;61.460;24.060;2023-08-31T07:56:51;98727.59;;;18.35;100.00
61757;BME280;57225;61.460;24.060;2023-08-31T07:59:36;98726.91;;;18.40;100.00
61757;BME280;57225;61.460;24.060;2023-08-31T08:02:23;98737.69;;;18.57;100.00
61757;BME280;57225;61.460;24.060;2023-08-31T08:05:08;98726.41;;;18.42;100.00
61757;BME280;57225;61.460;24.060;2023-08-31T08:07:53;98726.41;;;18.42;100.00
61757;BME280;57225;61.460;24.060;2023-08-31T08:10:37;98736.03;;;18.50;100.00
61757;BME280;57225;61.460;24.060;2023-08-31T08:13:22;98736.13;;;18.56;100.00
61757;BME280;57225;61.460;24.060;2023-08-31T08:16:06;98726.19;;;18.60;100.00
61757;BME280;57225;61.460;24.060;2023-08-31T08:18:51;98720.75;;;18.57;100.00
61757;BME280;57225;61.460;24.060;2023-08-31T08:21:36;98723.38;;;18.60;100.00
61757;BME280;57225;61.460;24.060;2023-08-31T08:24:20;98731.78;;;18.75;100.00
61757;BME280;57225;61.460;24.060;2023-08-31T08:27:05;98723.81;;;18.73;100.00
61757;BME280;57225;61.460;24.060;2023-08-31T08:29:50;98717.97;;;18.77;100.00
61757;BME280;57225;61.460;24.060;2023-08-31T08:32:34;98714.78;;;18.90;100.00
61757;BME280;57225;61.460;24.060;2023-08-31T08:35:19;98714.38;;;18.97;100.00
61757;BME280;57225;61.460;24.060;2023-08-31T08:38:04;98729.88;;;19.07;100.00
61757;BME280;57225;61.460;24.060;2023-08-31T08:40:49;98733.00;;;19.09;100.00
61757;BME280;57225;61.460;24.060;2023-08-31T08:43:34;98722.66;;;19.26;100.00
61757;BME280;57225;61.460;24.060;2023-08-31T08:46:19;98721.22;;;19.56;100.00
61757;BME280;57225;61.460;24.060;2023-08-31T08:49:05;98694.22;;;19.55;100.00
61757;BME280;57225;61.460;24.060;2023-08-31T08:51:50;98714.97;;;19.73;100.00
61757;BME280;57225;61.460;24.060;2023-08-31T08:54:35;98720.22;;;19.85;100.00
61757;BME280;57225;61.460;24.060;2023-08-31T08:57:19;98718.66;;;19.84;100.00
61757;BME280;57225;61.460;24.060;2023-08-31T09:00:05;98718.25;;;19.97;100.00
61757;BME280;57225;61.460;24.060;2023-08-31T09:03:07;98718.44;;;20.19;100.00
61757;BME280;57225;61.460;24.060;2023-08-31T09:05:52;98714.59;;;20.22;100.00
61757;BME280;57225;61.460;24.060;2023-08-31T09:08:36;98710.97;;;20.16;100.00
61757;BME280;57225;61.460;24.060;2023-08-31T09:11:21;98709.16;;;20.19;100.00
61757;BME280;57225;61.460;24.060;2023-08-31T09:14:19;98707.16;;;20.25;100.00
61757;BME280;57225;61.460;24.060;2023-08-31T09:17:04;98712.16;;;20.35;100.00
61757;BME280;57225;61.460;24.060;2023-08-31T09:20:01;98711.66;;;20.42;100.00
61757;BME280;57225;61.460;24.060;2023-08-31T09:22:45;98708.84;;;20.42;100.00
61757;BME280;57225;61.460;24.060;2023-08-31T09:25:31;98705.00;;;20.45;100.00
61757;BME280;57225;61.460;24.060;2023-08-31T09:28:16;98706.59;;;20.52;100.00
61757;BME280;57225;61.460;24.060;2023-08-31T09:31:08;98701.91;;;20.43;100.00
61757;BME280;57225;61.460;24.060;2023-08-31T09:33:52;98683.88;;;20.35;100.00
61757;BME280;57225;61.460;24.060;2023-08-31T09:36:38;98686.00;;;20.15;100.00
61757;BME280;57225;61.460;24.060;2023-08-31T09:39:22;98694.97;;;20.13;100.00
61757;BME280;57225;61.460;24.060;2023-08-31T09:42:06;98698.84;;;20.10;100.00
61757;BME280;57225;61.460;24.060;2023-08-31T09:44:51;98692.56;;;20.00;100.00
61757;BME280;57225;61.460;24.060;2023-08-31T09:47:36;98683.06;;;19.98;100.00
61757;BME280;57225;61.460;24.060;2023-08-31T09:50:22;98688.47;;;20.01;100.00
61757;BME280;57225;61.460;24.060;2023-08-31T09:53:09;98677.41;;;19.98;100.00
61757;BME280;57225;61.460;24.060;2023-08-31T09:55:54;98678.88;;;19.93;100.00
61757;BME280;57225;61.460;24.060;2023-08-31T09:58:38;98678.06;;;19.87;100.00
61757;BME280;57225;61.460;24.060;2023-08-31T10:01:23;98682.69;;;19.85;100.00
61757;BME280;57225;61.460;24.060;2023-08-31T10:04:08;98682.63;;;19.79;100.00
61757;BME280;57225;61.460;24.060;2023-08-31T10:06:53;98685.69;;;19.76;100.00
61757;BME280;57225;61.460;24.060;2023-08-31T10:09:38;98655.16;;;19.54;100.00
61757;BME280;57225;61.460;24.060;2023-08-31T10:12:23;98670.84;;;19.55;100.00
61757;BME280;57225;61.460;24.060;2023-08-31T10:15:08;98668.19;;;19.46;100.00
61757;BME280;57225;61.460;24.060;2023-08-31T10:17:54;98673.47;;;19.38;100.00
61757;BME280;57225;61.460;24.060;2023-08-31T10:20:42;98667.97;;;19.29;100.00
61757;BME280;57225;61.460;24.060;2023-08-31T10:23:26;98668.28;;;19.31;100.00
61757;BME280;57225;61.460;24.060;2023-08-31T10:26:11;98667.97;;;19.29;100.00
61757;BME280;57225;61.460;24.060;2023-08-31T10:28:57;98669.72;;;19.21;100.00
61757;BME280;57225;61.460;24.060;2023-08-31T10:31:47;98663.34;;;19.26;100.00
61757;BME280;57225;61.460;24.060;2023-08-31T10:34:35;98654.09;;;19.25;100.00
61757;BME280;57225;61.460;24.060;2023-08-31T10:37:20;98637.53;;;19.13;100.00
61757;BME280;57225;61.460;24.060;2023-08-31T10:40:10;98657.97;;;19.28;100.00
61757;BME280;57225;61.460;24.060;2023-08-31T10:43:14;98656.75;;;19.35;100.00
61757;BME280;57225;61.460;24.060;2023-08-31T10:45:59;98649.72;;;19.24;100.00
61757;BME280;57225;61.460;24.060;2023-08-31T10:48:53;98651.41;;;19.16;100.00
61757;BME280;57225;61.460;24.060;2023-08-31T10:51:42;98647.69;;;19.05;100.00
61757;BME280;57225;61.460;24.060;2023-08-31T10:54:30;98650.59;;;19.10;100.00
61757;BME280;57225;61.460;24.060;2023-08-31T10:57:16;98642.78;;;19.00;100.00
61757;BME280;57225;61.460;24.060;2023-08-31T11:00:00;98646.31;;;18.95;100.00
61757;BME280;57225;61.460;24.060;2023-08-31T11:03:06;98651.69;;;18.93;100.00
61757;BME280;57225;61.460;24.060;2023-08-31T11:05:52;98654.16;;;18.85;100.00
61757;BME280;57225;61.460;24.060;2023-08-31T11:08:37;98650.00;;;18.80;100.00
61757;BME280;57225;61.460;24.060;2023-08-31T11:11:23;98648.00;;;18.86;100.00
61757;BME280;57225;61.460;24.060;2023-08-31T11:14:11;98636.72;;;18.86;100.00
61757;BME280;57225;61.460;24.060;2023-08-31T11:16:55;98630.34;;;18.92;100.00
61757;BME280;57225;61.460;24.060;2023-08-31T11:19:41;98642.06;;;19.05;100.00
61757;BME280;57225;61.460;24.060;2023-08-31T11:22:26;98640.06;;;19.11;100.00
61757;BME280;57225;61.460;24.060;2023-08-31T11:25:12;98629.84;;;19.13;100.00
61757;BME280;57225;61.460;24.060;2023-08-31T11:28:02;98637.09;;;19.20;100.00
61757;BME280;57225;61.460;24.060;2023-08-31T11:30:50;98621.84;;;19.12;100.00
61757;BME280;57225;61.460;24.060;2023-08-31T11:33:34;98612.59;;;19.11;100.00
61757;BME280;57225;61.460;24.060;2023-08-31T11:36:21;98627.34;;;19.21;100.00
61757;BME280;57225;61.460;24.060;2023-08-31T11:39:06;98623.41;;;19.13;100.00
61757;BME280;57225;61.460;24.060;2023-08-31T11:41:50;98620.47;;;19.02;100.00
61757;BME280;57225;61.460;24.060;2023-08-31T11:44:35;98615.25;;;18.95;100.00
61757;BME280;57225;61.460;24.060;2023-08-31T11:47:20;98622.09;;;19.08;100.00
61757;BME280;57225;61.460;24.060;2023-08-31T11:50:05;98619.25;;;19.08;100.00
61757;BME280;57225;61.460;24.060;2023-08-31T11:52:51;98611.81;;;19.11;100.00
61757;BME280;57225;61.460;24.060;2023-08-31T11:55:49;98612.50;;;19.00;100.00
61757;BME280;57225;61.460;24.060;2023-08-31T11:58:40;98608.94;;;19.05;100.00
61757;BME280;57225;61.460;24.060;2023-08-31T12:01:26;98589.84;;;18.95;100.00
61757;BME280;57225;61.460;24.060;2023-08-31T12:04:16;98610.50;;;19.06;100.00
61757;BME280;57225;61.460;24.060;2023-08-31T12:07:04;98604.78;;;19.01;100.00
61757;BME280;57225;61.460;24.060;2023-08-31T12:09:51;98594.38;;;18.86;100.00
61757;BME280;57225;61.460;24.060;2023-08-31T12:12:35;98590.41;;;18.78;100.00
61757;BME280;57225;61.460;24.060;2023-08-31T12:15:21;98591.97;;;18.79;100.00
61757;BME280;57225;61.460;24.060;2023-08-31T12:18:11;98598.63;;;18.76;100.00
61757;BME280;57225;61.460;24.060;2023-08-31T12:20:56;98580.16;;;18.75;100.00
61757;BME280;57225;61.460;24.060;2023-08-31T12:23:41;98580.56;;;18.68;100.00
61757;BME280;57225;61.460;24.060;2023-08-31T12:26:26;98580.56;;;18.68;100.00
61757;BME280;57225;61.460;24.060;2023-08-31T12:29:11;98585.66;;;18.64;100.00
61757;BME280;57225;61.460;24.060;2023-08-31T12:31:55;98586.75;;;18.72;100.00
61757;BME280;57225;61.460;24.060;2023-08-31T12:34:40;98580.16;;;18.75;100.00
61757;BME280;57225;61.460;24.060;2023-08-31T12:37:24;98580.34;;;18.72;100.00
61757;BME280;57225;61.460;24.060;2023-08-31T12:40:09;98586.00;;;18.72;100.00
61757;BME280;57225;61.460;24.060;2023-08-31T12:42:54;98575.69;;;18.69;100.00
61757;BME280;57225;61.460;24.060;2023-08-31T12:45:39;98573.44;;;18.73;100.00
61757;BME280;57225;61.460;24.060;2023-08-31T12:48:23;98568.91;;;18.81;100.00
61757;BME280;57225;61.460;24.060;2023-08-31T12:51:08;98570.53;;;18.87;100.00
61757;BME280;57225;61.460;24.060;2023-08-31T12:53:52;98567.97;;;18.90;100.00
61757;BME280;57225;61.460;24.060;2023-08-31T12:56:37;98568.19;;;18.86;100.00
61757;BME280;57225;61.460;24.060;2023-08-31T12:59:22;98568.75;;;18.90;100.00
61757;BME280;57225;61.460;24.060;2023-08-31T13:02:06;98558.78;;;18.95;100.00
61757;BME280;57225;61.460;24.060;2023-08-31T13:04:54;98561.91;;;18.97;100.00
61757;BME280;57225;61.460;24.060;2023-08-31T13:07:39;98561.66;;;19.00;100.00
61757;BME280;57225;61.460;24.060;2023-08-31T13:10:24;98559.63;;;19.01;100.00
61757;BME280;57225;61.460;24.060;2023-08-31T13:13:09;98560.34;;;18.96;100.00
61757;BME280;57225;61.460;24.060;2023-08-31T13:15:53;98552.84;;;18.93;100.00
61757;BME280;57225;61.460;24.060;2023-08-31T13:18:37;98552.38;;;18.94;100.00
61757;BME280;57225;61.460;24.060;2023-08-31T13:21:22;98563.22;;;19.01;100.00
61757;BME280;57225;61.460;24.060;2023-08-31T13:24:06;98558.69;;;19.09;100.00
61757;BME280;57225;61.460;24.060;2023-08-31T13:26:51;98554.78;;;19.07;100.00
61757;BME280;57225;61.460;24.060;2023-08-31T13:29:36;98551.69;;;19.05;100.00
61757;BME280;57225;61.460;24.060;2023-08-31T13:32:20;98549.88;;;19.02;100.00
61757;BME280;57225;61.460;24.060;2023-08-31T13:35:05;98558.88;;;19.06;100.00
61757;BME280;57225;61.460;24.060;2023-08-31T13:37:53;98559.13;;;19.02;100.00
61757;BME280;57225;61.460;24.060;2023-08-31T13:40:37;98562.97;;;19.05;100.00
61757;BME280;57225;61.460;24.060;2023-08-31T13:43:22;98548.31;;;19.01;100.00
61757;BME280;57225;61.460;24.060;2023-08-31T13:46:06;98548.53;;;18.97;100.00
61757;BME280;57225;61.460;24.060;2023-08-31T13:48:51;98549.88;;;19.02;100.00
61757;BME280;57225;61.460;24.060;2023-08-31T13:51:36;98548.03;;;18.99;100.00
61757;BME280;57225;61.460;24.060;2023-08-31T13:54:21;98551.31;;;18.92;100.00
61757;BME280;57225;61.460;24.060;2023-08-31T13:57:05;98533.81;;;18.87;100.00
61757;BME280;57225;61.460;24.060;2023-08-31T13:59:50;98560.09;;;18.99;100.00
61757;BME280;57225;61.460;24.060;2023-08-31T14:02:34;98559.56;;;18.95;100.00
61757;BME280;57225;61.460;24.060;2023-08-31T14:05:19;98550.03;;;18.93;100.00
61757;BME280;57225;61.460;24.060;2023-08-31T14:08:04;98545.44;;;18.95;100.00
61757;BME280;57225;61.460;24.060;2023-08-31T14:10:49;98561.31;;;18.93;100.00
61757;BME280;57225;61.460;24.060;2023-08-31T14:13:33;98557.53;;;18.96;100.00
61757;BME280;57225;61.460;24.060;2023-08-31T14:16:18;98550.59;;;18.97;100.00